createdAt,value
2023-03-25T00:00:46.688Z,0.40
2023-03-25T00:03:18.602Z,0.50
2023-03-25T00:05:49.597Z,0.40
2023-03-25T00:08:20.813Z,0.50
2023-03-25T00:10:56.510Z,0.47
2023-03-25T00:13:29.253Z,1.90
2023-03-25T00:16:00.919Z,1.47
2023-03-25T00:18:34.732Z,0.63
2023-03-25T00:21:11.431Z,0.50
2023-03-25T00:23:43.074Z,0.30
2023-03-25T00:26:14.650Z,0.40
2023-03-25T00:28:47.027Z,0.20
2023-03-25T00:31:18.333Z,0.40
2023-03-25T00:33:51.444Z,0.40
2023-03-25T00:36:22.362Z,0.50
2023-03-25T00:38:53.373Z,0.40
2023-03-25T00:41:26.315Z,0.30
2023-03-25T00:44:00.042Z,0.40
2023-03-25T00:46:33.300Z,0.20
2023-03-25T00:49:04.188Z,0.30
2023-03-25T00:51:35.397Z,0.40
2023-03-25T00:54:24.636Z,0.30
2023-03-25T00:56:56.957Z,0.40
2023-03-25T00:59:29.820Z,0.40
2023-03-25T01:02:01.296Z,0.43
2023-03-25T01:04:32.435Z,0.40
2023-03-25T01:07:04.206Z,1.00
2023-03-25T01:09:35.154Z,0.60
2023-03-25T01:12:06.176Z,0.60
2023-03-25T01:14:38.871Z,0.60
2023-03-25T01:17:09.637Z,0.60
2023-03-25T01:19:41.183Z,0.80
2023-03-25T01:22:12.360Z,0.77
2023-03-25T01:24:43.833Z,0.60
2023-03-25T01:27:15.918Z,1.13
2023-03-25T01:29:50.790Z,0.60
2023-03-25T01:32:23.187Z,0.60
2023-03-25T01:34:55.206Z,0.70
2023-03-25T01:37:26.961Z,0.67
2023-03-25T01:39:58.888Z,0.50
2023-03-25T01:42:33.754Z,1.33
2023-03-25T01:45:29.760Z,0.60
2023-03-25T01:48:07.667Z,0.70
2023-03-25T01:50:42.875Z,0.60
2023-03-25T01:53:14.917Z,0.60
2023-03-25T01:55:49.012Z,0.70
2023-03-25T01:58:23.620Z,0.70
2023-03-25T02:00:58.986Z,0.83
2023-03-25T02:03:32.395Z,0.83
2023-03-25T02:06:07.136Z,0.80
2023-03-25T02:08:42.677Z,1.00
2023-03-25T02:11:15.612Z,0.90
2023-03-25T02:13:47.195Z,0.83
2023-03-25T02:16:30.178Z,0.90
2023-03-25T02:19:20.096Z,0.93
2023-03-25T02:22:27.256Z,1.03
2023-03-25T02:25:25.065Z,1.07
2023-03-25T02:28:05.521Z,1.13
2023-03-25T02:30:55.056Z,1.23
2023-03-25T02:33:43.964Z,1.40
2023-03-25T02:36:59.479Z,1.33
2023-03-25T02:39:40.098Z,1.10
2023-03-25T02:42:22.082Z,1.30
2023-03-25T02:45:00.544Z,1.10
2023-03-25T02:47:37.693Z,1.07
2023-03-25T02:50:13.479Z,0.80
2023-03-25T02:58:18.275Z,0.77
2023-03-25T03:00:53.702Z,0.80
2023-03-25T03:03:25.255Z,0.90
2023-03-25T03:06:02.384Z,0.67
2023-03-25T03:08:48.858Z,0.80
2023-03-25T03:11:25.316Z,0.57
2023-03-25T03:16:49.266Z,0.90
2023-03-25T03:22:03.215Z,0.63
2023-03-25T03:24:37.088Z,0.60
2023-03-25T03:27:16.532Z,0.73
2023-03-25T03:29:52.660Z,0.70
2023-03-25T03:32:33.601Z,1.00
2023-03-25T03:35:08.455Z,1.20
2023-03-25T03:37:43.884Z,1.50
2023-03-25T03:40:19.461Z,1.57
2023-03-25T03:42:57.298Z,1.17
2023-03-25T03:45:34.138Z,1.30
2023-03-25T03:48:13.513Z,1.13
2023-03-25T03:50:50.420Z,1.13
2023-03-25T03:53:27.206Z,1.27
2023-03-25T04:09:28.912Z,1.00
2023-03-25T04:12:03.625Z,1.83
2023-03-25T04:14:34.995Z,1.67
2023-03-25T04:17:07.792Z,1.67
2023-03-25T04:19:39.216Z,1.23
2023-03-25T04:22:10.901Z,1.07
2023-03-25T04:24:44.882Z,1.30
2023-03-25T04:27:16.940Z,1.30
2023-03-25T04:29:49.603Z,1.03
2023-03-25T04:32:21.267Z,0.90
2023-03-25T04:34:53.200Z,1.43
2023-03-25T04:37:26.006Z,1.27
2023-03-25T04:40:01.189Z,1.10
2023-03-25T04:42:34.247Z,0.97
2023-03-25T04:45:06.230Z,1.80
2023-03-25T04:47:37.938Z,1.40
2023-03-25T04:50:11.199Z,1.10
2023-03-25T04:52:42.773Z,1.50
2023-03-25T04:55:18.874Z,1.40
2023-03-25T04:57:51.155Z,1.10
2023-03-25T05:00:25.018Z,1.40
2023-03-25T05:02:57.806Z,2.00
2023-03-25T05:05:30.794Z,1.90
2023-03-25T05:08:03.108Z,1.40
2023-03-25T05:10:37.933Z,1.60
2023-03-25T05:13:10.695Z,1.73
2023-03-25T05:15:43.121Z,1.47
2023-03-25T05:18:17.178Z,1.47
2023-03-25T05:20:52.015Z,1.37
2023-03-25T05:23:24.705Z,2.00
2023-03-25T05:25:58.574Z,1.90
2023-03-25T05:28:31.841Z,1.67
2023-03-25T05:31:02.786Z,1.93
2023-03-25T05:33:35.509Z,2.37
2023-03-25T05:36:07.826Z,1.77
2023-03-25T06:05:35.550Z,1.83
2023-03-25T06:08:07.887Z,1.67
2023-03-25T06:10:42.923Z,2.00
2023-03-25T06:13:14.938Z,1.70
2023-03-25T06:15:46.646Z,1.70
2023-03-25T06:18:18.176Z,2.20
2023-03-25T06:20:52.594Z,2.03
2023-03-25T06:23:25.327Z,2.13
2023-03-25T06:25:56.908Z,1.60
2023-03-25T06:28:28.092Z,1.90
2023-03-25T06:30:59.240Z,1.97
2023-03-25T06:33:42.805Z,1.73
2023-03-25T06:36:20.233Z,1.53
2023-03-25T06:38:52.668Z,1.83
2023-03-25T06:41:26.039Z,1.50
2023-03-25T06:43:57.399Z,1.80
2023-03-25T06:46:28.432Z,1.60
2023-03-25T06:48:59.285Z,1.60
2023-03-25T06:51:32.395Z,1.73
2023-03-25T06:54:03.783Z,1.00
2023-03-25T06:56:36.358Z,1.20
2023-03-25T06:59:08.372Z,3.30
2023-03-25T07:01:39.887Z,1.60
2023-03-25T07:04:11.313Z,1.43
2023-03-25T07:06:45.355Z,1.20
2023-03-25T07:09:16.802Z,1.30
2023-03-25T07:11:48.421Z,1.13
2023-03-25T07:14:19.819Z,1.30
2023-03-25T07:16:51.281Z,1.00
2023-03-25T07:19:22.709Z,1.00
2023-03-25T07:21:55.893Z,1.00
2023-03-25T07:24:27.227Z,1.10
2023-03-25T07:26:58.224Z,1.00
2023-03-25T07:29:30.912Z,1.10
2023-03-25T07:32:02.864Z,1.00
2023-03-25T07:34:34.607Z,0.93
2023-03-25T07:37:09.748Z,1.00
2023-03-25T07:39:41.792Z,0.97
2023-03-25T07:42:13.285Z,1.10
2023-03-25T07:44:45.244Z,1.53
2023-03-25T07:47:16.811Z,1.30
2023-03-25T07:49:48.569Z,1.00
2023-03-25T07:52:21.207Z,1.10
2023-03-25T07:54:52.287Z,1.40
2023-03-25T07:57:23.509Z,1.67
2023-03-25T07:59:55.168Z,1.43
2023-03-25T08:02:26.459Z,1.13
2023-03-25T08:04:58.506Z,1.30
2023-03-25T08:07:31.916Z,1.03
2023-03-25T08:10:03.846Z,1.20
2023-03-25T08:12:35.577Z,0.97
2023-03-25T08:15:07.380Z,0.80
2023-03-25T08:17:38.696Z,0.80
2023-03-25T08:20:12.937Z,0.97
2023-03-25T08:22:49.311Z,0.80
2023-03-25T08:25:20.876Z,1.20
2023-03-25T08:27:52.778Z,0.80
2023-03-25T08:30:24.369Z,0.90
2023-03-25T08:32:56.849Z,0.83
2023-03-25T08:35:28.980Z,0.90
2023-03-25T08:38:06.208Z,0.70
2023-03-25T08:40:37.340Z,0.60
2023-03-25T08:43:10.012Z,1.00
2023-03-25T08:45:41.293Z,0.90
2023-03-25T08:48:13.205Z,1.00
2023-03-25T08:50:44.651Z,1.07
2023-03-25T08:53:17.952Z,0.87
2023-03-25T08:55:49.833Z,1.10
2023-03-25T08:58:21.960Z,1.07
2023-03-25T09:00:54.545Z,0.83
2023-03-25T09:03:28.504Z,1.10
2023-03-25T09:06:00.122Z,0.97
2023-03-25T09:08:34.479Z,0.87
2023-03-25T09:11:05.931Z,0.90
2023-03-25T09:13:37.639Z,0.93
2023-03-25T09:16:10.209Z,0.70
2023-03-25T09:18:42.287Z,0.70
2023-03-25T09:21:13.695Z,0.80
2023-03-25T09:23:48.895Z,0.80
2023-03-25T09:26:20.357Z,0.80
2023-03-25T09:28:52.084Z,1.00
2023-03-25T09:31:24.323Z,0.83
2023-03-25T09:33:55.860Z,1.30
2023-03-25T09:36:27.159Z,1.07
2023-03-25T09:39:00.837Z,1.00
2023-03-25T09:41:49.120Z,1.40
2023-03-25T09:44:29.475Z,1.00
2023-03-25T09:47:02.856Z,0.80
2023-03-25T09:49:41.644Z,0.80
2023-03-25T09:52:18.677Z,1.00
2023-03-25T09:54:55.651Z,1.10
2023-03-25T09:57:32.259Z,1.20
2023-03-25T10:00:08.650Z,1.00
2023-03-25T10:02:44.532Z,1.40
2023-03-25T10:05:25.019Z,1.37
2023-03-25T10:08:14.842Z,1.20
2023-03-25T10:10:54.487Z,1.20
2023-03-25T10:13:38.116Z,1.00
2023-03-25T10:16:19.137Z,0.87
2023-03-25T10:19:03.750Z,0.90
2023-03-25T10:21:42.620Z,0.80
2023-03-25T10:24:22.652Z,0.97
2023-03-25T10:27:01.015Z,0.70
2023-03-25T10:29:37.126Z,0.73
2023-03-25T10:32:14.605Z,0.80
2023-03-25T10:34:50.855Z,0.73
2023-03-25T10:37:31.341Z,0.90
2023-03-25T10:40:14.413Z,0.80
2023-03-25T10:42:56.435Z,0.70
2023-03-25T10:45:28.718Z,0.77
2023-03-25T10:48:09.666Z,0.70
2023-03-25T10:50:42.222Z,0.90
2023-03-25T10:53:23.285Z,0.93
2023-03-25T10:55:57.881Z,0.93
2023-03-25T10:58:33.021Z,1.00
2023-03-25T11:01:07.976Z,0.93
2023-03-25T11:03:39.814Z,1.03
2023-03-25T11:06:19.186Z,0.83
2023-03-25T11:09:01.587Z,1.00
2023-03-25T11:11:36.603Z,1.13
2023-03-25T11:14:10.384Z,0.93
2023-03-25T11:16:46.845Z,1.53
2023-03-25T11:19:27.575Z,0.80
2023-03-25T11:22:02.512Z,1.00
2023-03-25T11:24:38.661Z,1.13
2023-03-25T11:27:12.476Z,1.50
2023-03-25T11:29:53.740Z,1.40
2023-03-25T11:32:28.599Z,1.30
2023-03-25T11:35:00.104Z,1.20
2023-03-25T11:37:34.759Z,1.03
2023-03-25T11:40:17.053Z,1.60
2023-03-25T11:42:50.773Z,1.23
2023-03-25T11:45:30.736Z,1.40
2023-03-25T11:48:05.601Z,1.90
2023-03-25T11:50:38.205Z,1.63
2023-03-25T11:53:10.186Z,1.97
2023-03-25T11:55:49.190Z,1.40
2023-03-25T11:58:23.009Z,1.87
2023-03-25T12:01:03.632Z,2.40
2023-03-25T12:03:36.778Z,1.77
2023-03-25T12:06:10.785Z,1.37
2023-03-25T12:08:48.038Z,1.77
2023-03-25T12:11:28.008Z,1.97
2023-03-25T12:14:24.181Z,2.10
2023-03-25T12:17:06.233Z,2.00
2023-03-25T12:19:49.178Z,2.23
2023-03-25T12:22:35.007Z,1.63
2023-03-25T12:25:22.322Z,1.90
2023-03-25T12:28:19.077Z,2.20
2023-03-25T12:31:02.470Z,1.80
2023-03-25T12:33:44.221Z,1.50
2023-03-25T12:36:36.976Z,1.60
2023-03-25T12:39:35.697Z,1.50
2023-03-25T12:42:23.756Z,1.90
2023-03-25T12:45:18.235Z,2.17
2023-03-25T12:47:56.816Z,1.93
2023-03-25T12:50:43.119Z,1.40
2023-03-25T12:53:30.657Z,1.60
2023-03-25T12:56:11.640Z,1.80
2023-03-25T12:59:23.040Z,1.67
2023-03-25T13:02:03.743Z,1.93
2023-03-25T13:04:58.655Z,1.90
2023-03-25T13:07:35.528Z,1.90
2023-03-25T13:10:18.577Z,1.63
2023-03-25T13:12:55.243Z,1.60
2023-03-25T13:15:29.324Z,1.50
2023-03-25T13:18:04.834Z,2.07
2023-03-25T13:20:40.782Z,1.53
2023-03-25T13:23:18.544Z,1.70
2023-03-25T13:25:55.228Z,1.43
2023-03-25T13:28:30.618Z,1.90
2023-03-25T13:31:06.245Z,1.53
2023-03-25T13:33:42.632Z,1.70
2023-03-25T13:36:21.774Z,1.57
2023-03-25T13:38:59.707Z,2.40
2023-03-25T13:41:37.659Z,1.53
2023-03-25T13:44:16.050Z,1.27
2023-03-25T13:46:53.171Z,1.27
2023-03-25T13:49:31.020Z,1.67
2023-03-25T13:52:02.132Z,1.57
2023-03-25T13:54:39.608Z,1.20
2023-03-25T13:57:38.446Z,1.40
2023-03-25T14:00:37.557Z,1.20
2023-03-25T14:03:47.590Z,1.50
2023-03-25T14:06:57.988Z,1.50
2023-03-25T14:10:28.508Z,1.70
2023-03-25T14:13:03.312Z,1.50
2023-03-25T14:15:38.868Z,1.47
2023-03-25T14:18:20.029Z,1.33
2023-03-25T14:20:52.176Z,1.60
2023-03-25T14:23:26.904Z,1.30
2023-03-25T14:26:02.718Z,1.30
2023-03-25T14:28:40.921Z,1.50
2023-03-25T14:31:31.662Z,1.20
2023-03-25T14:34:26.963Z,1.47
2023-03-25T14:37:22.331Z,1.60
2023-03-25T14:39:53.041Z,1.40
2023-03-25T14:42:43.524Z,1.40
2023-03-25T14:48:38.360Z,1.83
2023-03-25T14:51:18.620Z,1.53
2023-03-25T14:53:59.880Z,1.20
2023-03-25T14:56:38.933Z,1.60
2023-03-25T14:59:18.375Z,1.60
2023-03-25T15:01:52.006Z,1.33
2023-03-25T15:04:31.799Z,1.60
2023-03-25T15:07:05.233Z,1.80
2023-03-25T15:09:36.456Z,1.80
2023-03-25T15:12:08.789Z,2.40
2023-03-25T15:14:46.483Z,1.63
2023-03-25T15:17:46.234Z,1.87
2023-03-25T15:20:33.206Z,1.50
2023-03-25T15:23:39.172Z,1.60
2023-03-25T15:26:17.044Z,1.90
2023-03-25T15:29:04.904Z,1.67
2023-03-25T15:31:52.153Z,1.73
2023-03-25T15:45:39.508Z,1.30
2023-03-25T15:48:26.096Z,1.77
2023-03-25T15:51:10.611Z,1.17
2023-03-25T15:54:06.775Z,1.90
2023-03-25T15:56:44.297Z,1.37
2023-03-25T15:59:32.594Z,1.53
2023-03-25T16:02:08.035Z,2.20
2023-03-25T16:04:45.134Z,1.83
2023-03-25T16:07:19.433Z,1.80
2023-03-25T16:09:51.811Z,2.10
2023-03-25T16:15:48.287Z,1.53
2023-03-25T16:18:20.687Z,1.87
2023-03-25T16:21:00.115Z,2.00
2023-03-25T16:23:33.080Z,1.70
2023-03-25T16:26:04.890Z,2.17
2023-03-25T16:28:37.456Z,1.83
2023-03-25T16:31:09.442Z,1.87
2023-03-25T16:33:42.788Z,1.80
2023-03-25T16:36:20.556Z,1.70
2023-03-25T16:38:53.074Z,1.50
2023-03-25T16:41:24.494Z,1.53
2023-03-25T16:43:56.339Z,1.53
2023-03-25T16:46:29.626Z,1.30
2023-03-25T16:49:10.699Z,1.53
2023-03-25T16:51:44.068Z,1.57
2023-03-25T16:54:31.419Z,1.80
2023-03-25T16:57:04.600Z,1.50
2023-03-25T16:59:38.457Z,1.33
2023-03-25T17:02:28.976Z,1.73
2023-03-25T17:05:17.378Z,1.30
2023-03-25T17:07:51.274Z,1.83
2023-03-25T17:10:26.039Z,1.73
2023-03-25T17:13:00.885Z,1.70
2023-03-25T17:15:35.688Z,1.60
2023-03-25T17:18:10.534Z,1.17
2023-03-25T17:20:43.504Z,1.20
2023-03-25T17:23:30.363Z,1.40
2023-03-25T17:26:05.488Z,1.50
2023-03-25T17:28:42.597Z,1.10
2023-03-25T17:31:31.550Z,1.70
2023-03-25T17:36:52.548Z,1.60
2023-03-25T17:39:28.544Z,1.13
2023-03-25T17:42:03.148Z,1.40
2023-03-25T17:44:38.253Z,1.70
2023-03-25T17:47:12.141Z,1.87
2023-03-25T18:16:31.204Z,1.37
2023-03-25T18:19:03.014Z,1.40
2023-03-25T18:21:34.349Z,1.23
2023-03-25T18:24:05.872Z,1.40
2023-03-25T18:26:37.370Z,1.80
2023-03-25T18:29:16.396Z,1.63
2023-03-25T18:31:49.364Z,1.47
2023-03-25T18:34:21.595Z,1.13
2023-03-25T18:36:53.252Z,1.43
2023-03-25T18:39:27.910Z,1.40
2023-03-25T18:41:58.862Z,1.33
2023-03-25T18:44:31.473Z,1.47
2023-03-25T18:47:04.961Z,1.30
2023-03-25T18:49:35.899Z,1.47
2023-03-25T18:52:07.229Z,1.33
2023-03-25T18:54:38.183Z,1.50
2023-03-25T18:57:09.579Z,1.50
2023-03-25T18:59:40.539Z,1.20
2023-03-25T19:02:14.176Z,1.37
2023-03-25T19:04:59.781Z,1.27
2023-03-25T19:07:32.195Z,1.30
2023-03-25T19:10:02.949Z,1.33
2023-03-25T19:12:34.337Z,1.23
2023-03-25T19:15:05.761Z,1.20
2023-03-25T19:17:39.910Z,1.40
2023-03-25T19:20:15.841Z,1.33
2023-03-25T19:22:47.398Z,1.80
2023-03-25T19:25:26.044Z,1.67
2023-03-25T19:27:57.664Z,1.50
2023-03-25T19:30:31.792Z,1.37
2023-03-25T19:33:04.918Z,1.50
2023-03-25T19:35:37.085Z,1.60
2023-03-25T19:38:08.834Z,1.80
2023-03-25T19:40:41.298Z,1.87
2023-03-25T19:43:14.749Z,1.50
2023-03-25T19:45:46.185Z,1.53
2023-03-25T19:48:19.339Z,1.60
2023-03-25T19:50:51.007Z,2.07
2023-03-25T19:53:22.710Z,2.70
2023-03-25T19:55:54.692Z,1.50
2023-03-25T19:58:26.628Z,1.53
2023-03-25T20:01:00.179Z,1.87
2023-03-25T20:03:33.915Z,1.63
2023-03-25T20:06:07.507Z,1.80
2023-03-25T20:08:39.223Z,1.20
2023-03-25T20:11:13.909Z,1.43
2023-03-25T20:13:45.355Z,1.27
2023-03-25T20:16:16.316Z,1.37
2023-03-25T20:18:48.982Z,1.47
2023-03-25T20:21:20.744Z,1.73
2023-03-25T20:23:52.874Z,1.23
2023-03-25T20:26:23.653Z,1.40
2023-03-25T20:28:55.052Z,1.60
2023-03-25T20:31:27.669Z,1.30
2023-03-25T20:34:00.840Z,1.40
2023-03-25T20:36:31.955Z,1.63
2023-03-25T20:39:06.587Z,1.27
2023-03-25T20:41:38.016Z,1.60
2023-03-25T20:44:08.979Z,1.50
2023-03-25T20:46:40.781Z,1.20
2023-03-25T20:49:14.960Z,1.50
2023-03-25T20:51:46.140Z,1.10
2023-03-25T20:54:17.399Z,1.50
2023-03-25T20:56:48.611Z,1.67
2023-03-25T20:59:19.991Z,1.40
2023-03-25T21:01:54.964Z,1.20
2023-03-25T21:04:27.642Z,1.53
2023-03-25T21:06:59.038Z,1.40
2023-03-25T21:09:29.816Z,1.43
2023-03-25T21:12:02.180Z,1.60
2023-03-25T21:14:33.566Z,1.20
2023-03-25T21:17:04.520Z,1.83
2023-03-25T21:19:37.465Z,1.63
2023-03-25T21:22:08.824Z,1.73
2023-03-25T21:24:39.828Z,1.67
2023-03-25T21:27:11.108Z,1.30
2023-03-25T21:29:41.792Z,1.30
2023-03-25T21:32:14.978Z,1.20
2023-03-25T21:34:47.431Z,1.60
2023-03-25T21:37:18.168Z,1.20
2023-03-25T21:39:51.212Z,1.40
2023-03-25T21:42:21.885Z,1.30
2023-03-25T21:44:52.636Z,1.17
2023-03-25T21:47:23.320Z,1.17
2023-03-25T21:49:55.677Z,1.20
2023-03-25T21:52:27.207Z,1.23
2023-03-25T21:55:00.159Z,1.30
2023-03-25T21:57:32.346Z,1.20
2023-03-25T22:00:03.105Z,1.53
2023-03-25T22:02:34.274Z,1.27
2023-03-25T22:05:06.931Z,1.27
2023-03-25T22:07:37.647Z,1.30
2023-03-25T22:10:10.584Z,1.10
2023-03-25T22:12:41.302Z,1.30
2023-03-25T22:15:13.361Z,1.33
2023-03-25T22:17:44.502Z,1.33
2023-03-25T22:20:17.202Z,1.10
2023-03-25T22:22:48.497Z,1.17
2023-03-25T22:25:19.280Z,1.20
2023-03-25T22:27:50.013Z,0.90
2023-03-25T22:30:21.182Z,1.17
2023-03-25T22:32:52.182Z,1.10
2023-03-25T22:35:24.686Z,1.07
2023-03-25T22:37:56.503Z,0.80
2023-03-25T22:40:29.582Z,1.03
2023-03-25T22:43:01.871Z,1.17
2023-03-25T22:45:33.010Z,1.10
2023-03-25T22:48:04.525Z,0.87
2023-03-25T22:50:39.164Z,0.80
2023-03-25T22:53:10.202Z,0.83
2023-03-25T22:55:41.476Z,1.20
2023-03-25T22:58:12.657Z,0.90
2023-03-25T23:00:44.906Z,1.03
2023-03-25T23:03:16.890Z,0.70
2023-03-25T23:06:00.660Z,1.00
2023-03-25T23:08:34.191Z,0.90
2023-03-25T23:11:10.207Z,1.00
2023-03-25T23:13:42.385Z,0.93
2023-03-25T23:16:15.722Z,1.33
2023-03-25T23:18:47.353Z,1.00
2023-03-25T23:21:24.265Z,1.10
2023-03-25T23:23:57.628Z,0.87
2023-03-25T23:26:30.052Z,1.20
2023-03-25T23:29:01.675Z,0.70
2023-03-25T23:31:36.131Z,1.13
2023-03-25T23:34:08.465Z,0.80
2023-03-25T23:36:41.719Z,0.70
2023-03-25T23:39:14.385Z,0.87
2023-03-25T23:41:45.660Z,0.93
2023-03-25T23:44:16.370Z,0.90
2023-03-25T23:46:47.326Z,0.77
2023-03-25T23:49:18.664Z,0.90
2023-03-25T23:51:51.796Z,0.87
2023-03-25T23:54:22.591Z,0.77
2023-03-25T23:56:53.317Z,0.87
2023-03-25T23:59:24.036Z,0.97
